sensor_id;sensor_type;location;lat;lon;timestamp;pressure;altitude;pressure_sealevel;temperature;humidity
59106;BME280;44891;50.204;8.132;2023-08-06T00:03:10;97306.69;;;15.63;98.07
59106;BME280;44891;50.204;8.132;2023-08-06T00:07:12;97309.34;;;15.63;98.86
59106;BME280;44891;50.204;8.132;2023-08-06T00:11:17;97300.53;;;15.67;95.78
59106;BME280;44891;50.204;8.132;2023-08-06T00:15:20;97302.00;;;15.73;95.26
59106;BME280;44891;50.204;8.132;2023-08-06T00:19:22;97272.34;;;15.58;95.72
59106;BME280;44891;50.204;8.132;2023-08-06T00:23:25;97288.00;;;15.73;94.69
59106;BME280;44891;50.204;8.132;2023-08-06T00:27:29;97288.28;;;15.71;95.50
59106;BME280;44891;50.204;8.132;2023-08-06T00:31:31;97282.19;;;15.71;94.66
59106;BME280;44891;50.204;8.132;2023-08-06T00:35:33;97273.47;;;15.70;95.31
59106;BME280;44891;50.204;8.132;2023-08-06T00:39:37;97262.53;;;15.58;96.17
59106;BME280;44891;50.204;8.132;2023-08-06T00:43:41;97280.94;;;15.68;97.07
59106;BME280;44891;50.204;8.132;2023-08-06T00:47:46;97267.28;;;15.61;97.49
59106;BME280;44891;50.204;8.132;2023-08-06T00:51:49;97266.78;;;15.59;97.59
59106;BME280;44891;50.204;8.132;2023-08-06T00:55:52;97257.84;;;15.55;98.85
59106;BME280;44891;50.204;8.132;2023-08-06T00:59:58;97243.63;;;15.51;98.79
59106;BME280;44891;50.204;8.132;2023-08-06T01:04:01;97235.03;;;15.45;98.55
59106;BME280;44891;50.204;8.132;2023-08-06T01:08:12;97231.19;;;15.38;98.90
59106;BME280;44891;50.204;8.132;2023-08-06T01:12:31;97225.31;;;15.27;99.91
59106;BME280;44891;50.204;8.132;2023-08-06T01:16:40;97222.75;;;15.22;99.55
59106;BME280;44891;50.204;8.132;2023-08-06T01:20:46;97229.97;;;15.16;100.00
59106;BME280;44891;50.204;8.132;2023-08-06T01:24:50;97238.91;;;15.20;100.00
59106;BME280;44891;50.204;8.132;2023-08-06T01:28:57;97220.78;;;15.28;100.00
59106;BME280;44891;50.204;8.132;2023-08-06T01:33:04;97214.13;;;15.30;100.00
59106;BME280;44891;50.204;8.132;2023-08-06T01:37:08;97219.81;;;15.37;100.00
59106;BME280;44891;50.204;8.132;2023-08-06T01:41:11;97229.31;;;15.38;100.00
59106;BME280;44891;50.204;8.132;2023-08-06T01:45:14;97226.88;;;15.28;100.00
59106;BME280;44891;50.204;8.132;2023-08-06T01:49:18;97215.09;;;15.20;100.00
59106;BME280;44891;50.204;8.132;2023-08-06T01:53:23;97224.22;;;15.28;100.00
59106;BME280;44891;50.204;8.132;2023-08-06T01:57:28;97226.88;;;15.28;100.00
59106;BME280;44891;50.204;8.132;2023-08-06T02:01:31;97223.22;;;15.24;100.00
59106;BME280;44891;50.204;8.132;2023-08-06T02:05:35;97221.88;;;15.27;100.00
59106;BME280;44891;50.204;8.132;2023-08-06T02:09:38;97211.09;;;15.23;100.00
59106;BME280;44891;50.204;8.132;2023-08-06T02:13:41;97207.16;;;15.07;100.00
59106;BME280;44891;50.204;8.132;2023-08-06T02:17:44;97201.75;;;15.12;100.00
59106;BME280;44891;50.204;8.132;2023-08-06T02:21:47;97192.00;;;15.12;100.00
59106;BME280;44891;50.204;8.132;2023-08-06T02:25:58;97181.41;;;15.12;100.00
59106;BME280;44891;50.204;8.132;2023-08-06T02:30:00;97163.66;;;14.99;100.00
59106;BME280;44891;50.204;8.132;2023-08-06T02:34:03;97172.19;;;15.10;100.00
59106;BME280;44891;50.204;8.132;2023-08-06T02:38:05;97174.03;;;15.09;100.00
59106;BME280;44891;50.204;8.132;2023-08-06T02:42:09;97166.72;;;15.06;100.00
59106;BME280;44891;50.204;8.132;2023-08-06T02:46:11;97173.06;;;15.05;100.00
59106;BME280;44891;50.204;8.132;2023-08-06T02:50:14;97168.28;;;15.07;100.00
59106;BME280;44891;50.204;8.132;2023-08-06T02:54:16;97159.16;;;15.00;100.00
59106;BME280;44891;50.204;8.132;2023-08-06T02:58:20;97165.13;;;15.05;100.00
59106;BME280;44891;50.204;8.132;2023-08-06T03:02:33;97155.06;;;15.07;100.00
59106;BME280;44891;50.204;8.132;2023-08-06T03:06:49;97156.72;;;15.03;100.00
59106;BME280;44891;50.204;8.132;2023-08-06T03:10:55;97160.91;;;15.04;100.00
59106;BME280;44891;50.204;8.132;2023-08-06T03:14:59;97154.34;;;15.02;100.00
59106;BME280;44891;50.204;8.132;2023-08-06T03:19:02;97123.19;;;14.85;100.00
59106;BME280;44891;50.204;8.132;2023-08-06T03:23:05;97138.28;;;14.98;100.00
59106;BME280;44891;50.204;8.132;2023-08-06T03:27:08;97136.63;;;14.88;100.00
59106;BME280;44891;50.204;8.132;2023-08-06T03:31:15;97133.50;;;14.86;100.00
59106;BME280;44891;50.204;8.132;2023-08-06T03:35:20;97126.13;;;14.83;100.00
59106;BME280;44891;50.204;8.132;2023-08-06T03:39:23;97134.53;;;14.85;100.00
59106;BME280;44891;50.204;8.132;2023-08-06T03:43:25;97123.69;;;14.87;100.00
59106;BME280;44891;50.204;8.132;2023-08-06T03:47:30;97119.00;;;14.84;100.00
59106;BME280;44891;50.204;8.132;2023-08-06T03:51:33;97122.00;;;14.77;100.00
59106;BME280;44891;50.204;8.132;2023-08-06T03:55:37;97119.38;;;14.77;100.00
59106;BME280;44891;50.204;8.132;2023-08-06T03:59:39;97107.53;;;14.75;100.00
59106;BME280;44891;50.204;8.132;2023-08-06T04:03:43;97112.22;;;14.78;100.00
59106;BME280;44891;50.204;8.132;2023-08-06T04:07:46;97123.31;;;14.80;100.00
59106;BME280;44891;50.204;8.132;2023-08-06T04:11:48;97122.22;;;14.81;100.00
59106;BME280;44891;50.204;8.132;2023-08-06T04:15:51;97102.94;;;14.66;100.00
59106;BME280;44891;50.204;8.132;2023-08-06T04:19:56;97112.59;;;14.71;100.00
59106;BME280;44891;50.204;8.132;2023-08-06T04:23:59;97117.03;;;14.76;100.00
59106;BME280;44891;50.204;8.132;2023-08-06T04:28:03;97115.47;;;14.75;100.00
59106;BME280;44891;50.204;8.132;2023-08-06T04:32:07;97111.25;;;14.74;100.00
59106;BME280;44891;50.204;8.132;2023-08-06T04:36:13;97107.94;;;14.82;100.00
59106;BME280;44891;50.204;8.132;2023-08-06T04:40:15;97106.38;;;14.81;100.00
59106;BME280;44891;50.204;8.132;2023-08-06T04:44:18;97105.78;;;14.84;100.00
59106;BME280;44891;50.204;8.132;2023-08-06T04:48:21;97101.47;;;14.74;100.00
59106;BME280;44891;50.204;8.132;2023-08-06T04:52:24;97103.03;;;14.75;100.00
59106;BME280;44891;50.204;8.132;2023-08-06T04:56:30;97094.31;;;14.75;100.00
59106;BME280;44891;50.204;8.132;2023-08-06T05:00:34;97100.78;;;14.82;100.00
59106;BME280;44891;50.204;8.132;2023-08-06T05:04:36;97089.03;;;14.75;100.00
59106;BME280;44891;50.204;8.132;2023-08-06T05:08:40;97088.94;;;14.80;100.00
59106;BME280;44891;50.204;8.132;2023-08-06T05:12:42;97101.78;;;14.86;100.00
59106;BME280;44891;50.204;8.132;2023-08-06T05:16:45;97097.44;;;14.90;100.00
59106;BME280;44891;50.204;8.132;2023-08-06T05:20:47;97096.28;;;14.96;100.00
59106;BME280;44891;50.204;8.132;2023-08-06T05:24:51;97079.03;;;14.85;100.00
59106;BME280;44891;50.204;8.132;2023-08-06T05:28:53;97098.94;;;14.96;100.00
59106;BME280;44891;50.204;8.132;2023-08-06T05:32:55;97088.16;;;14.93;100.00
59106;BME280;44891;50.204;8.132;2023-08-06T05:36:58;97097.84;;;15.11;100.00
59106;BME280;44891;50.204;8.132;2023-08-06T05:41:02;97084.25;;;14.90;100.00
59106;BME280;44891;50.204;8.132;2023-08-06T05:45:06;97097.38;;;15.09;100.00
59106;BME280;44891;50.204;8.132;2023-08-06T05:49:09;97097.97;;;15.06;100.00
59106;BME280;44891;50.204;8.132;2023-08-06T05:53:11;97091.69;;;15.02;100.00
59106;BME280;44891;50.204;8.132;2023-08-06T05:57:15;97108.53;;;15.20;100.00
59106;BME280;44891;50.204;8.132;2023-08-06T06:01:17;97103.66;;;15.13;100.00
59106;BME280;44891;50.204;8.132;2023-08-06T06:05:20;97105.59;;;15.21;100.00
59106;BME280;44891;50.204;8.132;2023-08-06T06:09:22;97105.78;;;15.11;100.00
59106;BME280;44891;50.204;8.132;2023-08-06T06:13:26;97118.22;;;15.24;100.00
59106;BME280;44891;50.204;8.132;2023-08-06T06:17:28;97113.22;;;15.37;100.00
59106;BME280;44891;50.204;8.132;2023-08-06T06:21:32;97116.66;;;15.23;100.00
59106;BME280;44891;50.204;8.132;2023-08-06T06:25:34;97117.03;;;15.31;100.00
59106;BME280;44891;50.204;8.132;2023-08-06T06:29:38;97119.19;;;15.29;100.00
59106;BME280;44891;50.204;8.132;2023-08-06T06:33:40;97126.44;;;15.37;100.00
59106;BME280;44891;50.204;8.132;2023-08-06T06:37:44;97121.53;;;15.44;100.00
59106;BME280;44891;50.204;8.132;2023-08-06T06:41:46;97127.09;;;15.56;100.00
59106;BME280;44891;50.204;8.132;2023-08-06T06:46:00;97123.50;;;15.52;100.00
59106;BME280;44891;50.204;8.132;2023-08-06T06:50:02;97129.38;;;15.49;100.00
59106;BME280;44891;50.204;8.132;2023-08-06T06:54:05;97123.22;;;15.40;100.00
59106;BME280;44891;50.204;8.132;2023-08-06T06:58:07;97127.94;;;15.15;100.00
59106;BME280;44891;50.204;8.132;2023-08-06T07:02:11;97125.75;;;15.17;100.00
59106;BME280;44891;50.204;8.132;2023-08-06T07:06:13;97113.53;;;15.08;100.00
59106;BME280;44891;50.204;8.132;2023-08-06T07:10:16;97104.59;;;15.04;100.00
59106;BME280;44891;50.204;8.132;2023-08-06T07:14:19;97129.31;;;15.27;100.00
59106;BME280;44891;50.204;8.132;2023-08-06T07:18:22;97128.22;;;15.41;100.00
59106;BME280;44891;50.204;8.132;2023-08-06T07:22:25;97122.72;;;15.24;100.00
59106;BME280;44891;50.204;8.132;2023-08-06T07:26:27;97125.97;;;15.35;100.00
59106;BME280;44891;50.204;8.132;2023-08-06T07:30:29;97125.16;;;15.48;100.00
59106;BME280;44891;50.204;8.132;2023-08-06T07:34:33;97131.94;;;15.68;100.00
59106;BME280;44891;50.204;8.132;2023-08-06T07:38:35;97120.47;;;15.72;100.00
59106;BME280;44891;50.204;8.132;2023-08-06T07:42:38;97113.63;;;15.94;100.00
59106;BME280;44891;50.204;8.132;2023-08-06T07:46:41;97112.97;;;16.11;100.00
59106;BME280;44891;50.204;8.132;2023-08-06T07:50:45;97128.97;;;16.50;99.80
59106;BME280;44891;50.204;8.132;2023-08-06T07:54:51;97131.81;;;16.54;98.65
59106;BME280;44891;50.204;8.132;2023-08-06T07:58:53;97114.22;;;16.58;100.00
59106;BME280;44891;50.204;8.132;2023-08-06T08:02:56;97119.63;;;16.75;98.01
59106;BME280;44891;50.204;8.132;2023-08-06T08:06:59;97127.22;;;16.68;95.31
59106;BME280;44891;50.204;8.132;2023-08-06T08:11:02;97129.91;;;16.46;95.37
59106;BME280;44891;50.204;8.132;2023-08-06T08:15:05;97130.75;;;16.77;96.48
59106;BME280;44891;50.204;8.132;2023-08-06T08:19:07;97099.09;;;16.90;95.49
59106;BME280;44891;50.204;8.132;2023-08-06T08:23:11;97123.75;;;16.90;96.30
59106;BME280;44891;50.204;8.132;2023-08-06T08:27:13;97107.91;;;16.99;91.17
59106;BME280;44891;50.204;8.132;2023-08-06T08:31:16;97117.09;;;17.01;93.20
59106;BME280;44891;50.204;8.132;2023-08-06T08:35:19;97122.84;;;16.95;95.25
59106;BME280;44891;50.204;8.132;2023-08-06T08:39:22;97113.66;;;17.01;96.96
59106;BME280;44891;50.204;8.132;2023-08-06T08:43:24;97114.31;;;17.06;95.26
59106;BME280;44891;50.204;8.132;2023-08-06T08:47:27;97115.00;;;16.81;92.95
59106;BME280;44891;50.204;8.132;2023-08-06T08:51:30;97107.34;;;16.79;93.62
59106;BME280;44891;50.204;8.132;2023-08-06T08:55:34;97118.78;;;16.66;96.58
59106;BME280;44891;50.204;8.132;2023-08-06T08:59:36;97112.09;;;16.91;95.25
59106;BME280;44891;50.204;8.132;2023-08-06T09:03:38;97118.09;;;17.23;93.28
59106;BME280;44891;50.204;8.132;2023-08-06T09:07:42;97111.81;;;17.58;94.37
59106;BME280;44891;50.204;8.132;2023-08-06T09:11:47;97110.72;;;17.68;88.34
59106;BME280;44891;50.204;8.132;2023-08-06T09:15:50;97125.47;;;17.83;89.43
59106;BME280;44891;50.204;8.132;2023-08-06T09:19:54;97123.56;;;17.75;90.65
59106;BME280;44891;50.204;8.132;2023-08-06T09:23:58;97110.72;;;17.68;87.39
59106;BME280;44891;50.204;8.132;2023-08-06T09:28:03;97128.13;;;17.34;91.45
59106;BME280;44891;50.204;8.132;2023-08-06T09:32:05;97130.47;;;17.36;91.06
59106;BME280;44891;50.204;8.132;2023-08-06T09:36:08;97121.84;;;17.22;93.33
59106;BME280;44891;50.204;8.132;2023-08-06T09:40:25;97125.22;;;17.62;93.94
59106;BME280;44891;50.204;8.132;2023-08-06T09:44:32;97137.72;;;17.61;95.02
59106;BME280;44891;50.204;8.132;2023-08-06T09:48:37;97122.75;;;17.57;95.69
59106;BME280;44891;50.204;8.132;2023-08-06T09:52:39;97092.25;;;17.37;95.84
59106;BME280;44891;50.204;8.132;2023-08-06T09:56:42;97133.44;;;17.83;92.77
59106;BME280;44891;50.204;8.132;2023-08-06T10:00:48;97130.78;;;17.83;92.06
59106;BME280;44891;50.204;8.132;2023-08-06T10:04:50;97116.41;;;18.10;89.06
59106;BME280;44891;50.204;8.132;2023-08-06T10:08:52;97130.09;;;18.64;86.21
59106;BME280;44891;50.204;8.132;2023-08-06T10:12:56;97121.47;;;19.14;85.76
59106;BME280;44891;50.204;8.132;2023-08-06T10:17:02;97114.84;;;19.28;82.16
59106;BME280;44891;50.204;8.132;2023-08-06T10:21:07;97113.75;;;19.29;81.10
59106;BME280;44891;50.204;8.132;2023-08-06T10:25:10;97115.22;;;19.18;76.56
59106;BME280;44891;50.204;8.132;2023-08-06T10:29:38;97116.25;;;19.85;77.25
59106;BME280;44891;50.204;8.132;2023-08-06T10:33:42;97119.22;;;20.04;74.21
59106;BME280;44891;50.204;8.132;2023-08-06T10:37:45;97102.59;;;19.66;74.03
59106;BME280;44891;50.204;8.132;2023-08-06T10:41:47;97121.31;;;19.78;76.25
59106;BME280;44891;50.204;8.132;2023-08-06T10:45:50;97114.66;;;20.05;74.87
59106;BME280;44891;50.204;8.132;2023-08-06T10:49:53;97119.63;;;19.94;73.83
59106;BME280;44891;50.204;8.132;2023-08-06T10:53:56;97137.28;;;19.19;77.05
59106;BME280;44891;50.204;8.132;2023-08-06T10:57:58;97177.34;;;18.24;87.43
59106;BME280;44891;50.204;8.132;2023-08-06T11:02:01;97181.22;;;17.34;95.37
59106;BME280;44891;50.204;8.132;2023-08-06T11:06:06;97193.00;;;17.11;99.70
59106;BME280;44891;50.204;8.132;2023-08-06T11:10:12;97197.97;;;16.81;100.00
59106;BME280;44891;50.204;8.132;2023-08-06T11:14:15;97206.50;;;16.34;100.00
59106;BME280;44891;50.204;8.132;2023-08-06T11:18:17;97213.66;;;15.83;100.00
59106;BME280;44891;50.204;8.132;2023-08-06T11:22:22;97229.84;;;15.82;100.00
59106;BME280;44891;50.204;8.132;2023-08-06T11:26:24;97237.22;;;15.85;100.00
59106;BME280;44891;50.204;8.132;2023-08-06T11:30:28;97244.84;;;15.59;100.00
59106;BME280;44891;50.204;8.132;2023-08-06T11:34:32;97250.69;;;15.42;100.00
59106;BME280;44891;50.204;8.132;2023-08-06T11:38:36;97261.16;;;15.33;100.00
59106;BME280;44891;50.204;8.132;2023-08-06T11:42:38;97264.91;;;15.32;100.00
59106;BME280;44891;50.204;8.132;2023-08-06T11:46:50;97286.16;;;15.27;100.00
59106;BME280;44891;50.204;8.132;2023-08-06T11:50:54;97283.66;;;15.17;100.00
59106;BME280;44891;50.204;8.132;2023-08-06T11:55:10;97299.34;;;15.13;100.00
59106;BME280;44891;50.204;8.132;2023-08-06T11:59:15;97294.19;;;15.03;100.00
59106;BME280;44891;50.204;8.132;2023-08-06T12:03:20;97294.00;;;15.00;100.00
59106;BME280;44891;50.204;8.132;2023-08-06T12:07:29;97288.66;;;14.86;100.00
59106;BME280;44891;50.204;8.132;2023-08-06T12:11:33;97308.84;;;14.95;100.00
59106;BME280;44891;50.204;8.132;2023-08-06T12:15:35;97325.81;;;14.94;100.00
59106;BME280;44891;50.204;8.132;2023-08-06T12:19:37;97320.38;;;14.86;100.00
59106;BME280;44891;50.204;8.132;2023-08-06T12:23:40;97316.56;;;14.92;100.00
59106;BME280;44891;50.204;8.132;2023-08-06T12:27:44;97336.44;;;15.08;100.00
59106;BME280;44891;50.204;8.132;2023-08-06T12:31:46;97318.78;;;15.04;100.00
59106;BME280;44891;50.204;8.132;2023-08-06T12:35:49;97304.78;;;15.03;100.00
59106;BME280;44891;50.204;8.132;2023-08-06T12:39:54;97341.50;;;15.37;99.63
59106;BME280;44891;50.204;8.132;2023-08-06T12:43:57;97339.22;;;15.31;100.00
59106;BME280;44891;50.204;8.132;2023-08-06T12:48:00;97349.81;;;15.31;100.00
59106;BME280;44891;50.204;8.132;2023-08-06T12:52:03;97364.78;;;15.21;100.00
59106;BME280;44891;50.204;8.132;2023-08-06T12:56:07;97371.66;;;15.04;100.00
59106;BME280;44891;50.204;8.132;2023-08-06T13:00:11;97372.72;;;15.03;98.50
59106;BME280;44891;50.204;8.132;2023-08-06T13:04:13;97367.09;;;15.09;98.10
59106;BME280;44891;50.204;8.132;2023-08-06T13:08:18;97369.72;;;15.09;97.73
59106;BME280;44891;50.204;8.132;2023-08-06T13:12:20;97369.47;;;15.24;96.89
59106;BME280;44891;50.204;8.132;2023-08-06T13:16:25;97388.38;;;15.50;96.67
59106;BME280;44891;50.204;8.132;2023-08-06T13:20:30;97383.59;;;15.71;97.69
59106;BME280;44891;50.204;8.132;2023-08-06T13:24:34;97392.59;;;15.84;95.03
59106;BME280;44891;50.204;8.132;2023-08-06T13:28:36;97374.19;;;15.93;94.64
59106;BME280;44891;50.204;8.132;2023-08-06T13:32:40;97366.22;;;15.65;91.66
59106;BME280;44891;50.204;8.132;2023-08-06T13:36:43;97399.91;;;15.92;91.49
59106;BME280;44891;50.204;8.132;2023-08-06T13:40:45;97408.72;;;15.88;91.74
59106;BME280;44891;50.204;8.132;2023-08-06T13:44:48;97391.38;;;16.09;92.53
59106;BME280;44891;50.204;8.132;2023-08-06T13:48:52;97403.13;;;16.17;91.36
59106;BME280;44891;50.204;8.132;2023-08-06T13:52:54;97410.81;;;16.46;90.25
59106;BME280;44891;50.204;8.132;2023-08-06T13:56:57;97414.31;;;16.69;88.77
59106;BME280;44891;50.204;8.132;2023-08-06T14:00:59;97408.59;;;16.89;87.02
59106;BME280;44891;50.204;8.132;2023-08-06T14:05:04;97422.66;;;16.90;83.28
59106;BME280;44891;50.204;8.132;2023-08-06T14:09:08;97423.34;;;16.68;86.16
59106;BME280;44891;50.204;8.132;2023-08-06T14:13:13;97403.25;;;16.25;86.63
59106;BME280;44891;50.204;8.132;2023-08-06T14:17:15;97408.34;;;16.49;88.09
59106;BME280;44891;50.204;8.132;2023-08-06T14:21:19;97434.25;;;16.52;87.95
59106;BME280;44891;50.204;8.132;2023-08-06T14:25:21;97441.13;;;16.40;87.59
59106;BME280;44891;50.204;8.132;2023-08-06T14:29:24;97444.09;;;16.24;86.84
59106;BME280;44891;50.204;8.132;2023-08-06T14:33:26;97449.84;;;16.13;88.67
59106;BME280;44891;50.204;8.132;2023-08-06T14:37:33;97454.19;;;15.90;88.55
59106;BME280;44891;50.204;8.132;2023-08-06T14:41:36;97455.13;;;15.66;91.55
59106;BME280;44891;50.204;8.132;2023-08-06T14:45:39;97462.94;;;15.39;94.95
59106;BME280;44891;50.204;8.132;2023-08-06T14:49:41;97484.59;;;15.22;97.96
59106;BME280;44891;50.204;8.132;2023-08-06T14:53:47;97493.47;;;15.12;99.52
59106;BME280;44891;50.204;8.132;2023-08-06T14:57:50;97486.84;;;14.91;100.00
59106;BME280;44891;50.204;8.132;2023-08-06T15:01:52;97470.09;;;14.77;100.00
59106;BME280;44891;50.204;8.132;2023-08-06T15:05:54;97489.56;;;14.86;98.46
59106;BME280;44891;50.204;8.132;2023-08-06T15:09:58;97500.78;;;14.96;98.20
59106;BME280;44891;50.204;8.132;2023-08-06T15:14:01;97509.75;;;15.01;97.33
59106;BME280;44891;50.204;8.132;2023-08-06T15:18:06;97530.84;;;15.06;97.26
59106;BME280;44891;50.204;8.132;2023-08-06T15:22:09;97526.34;;;15.06;97.43
59106;BME280;44891;50.204;8.132;2023-08-06T15:26:15;97524.28;;;14.98;100.00
59106;BME280;44891;50.204;8.132;2023-08-06T15:30:17;97513.97;;;14.78;100.00
59106;BME280;44891;50.204;8.132;2023-08-06T15:34:20;97531.38;;;14.79;100.00
59106;BME280;44891;50.204;8.132;2023-08-06T15:38:23;97509.75;;;14.53;100.00
59106;BME280;44891;50.204;8.132;2023-08-06T15:42:28;97528.47;;;14.56;100.00
59106;BME280;44891;50.204;8.132;2023-08-06T15:46:30;97526.31;;;14.58;100.00
59106;BME280;44891;50.204;8.132;2023-08-06T15:50:36;97542.91;;;14.64;100.00
59106;BME280;44891;50.204;8.132;2023-08-06T15:54:39;97533.59;;;14.48;100.00
59106;BME280;44891;50.204;8.132;2023-08-06T15:58:42;97549.16;;;14.49;100.00
59106;BME280;44891;50.204;8.132;2023-08-06T16:02:45;97550.44;;;14.52;100.00
59106;BME280;44891;50.204;8.132;2023-08-06T16:06:47;97542.47;;;14.28;100.00
59106;BME280;44891;50.204;8.132;2023-08-06T16:10:52;97563.78;;;14.36;100.00
59106;BME280;44891;50.204;8.132;2023-08-06T16:14:56;97574.59;;;14.40;100.00
59106;BME280;44891;50.204;8.132;2023-08-06T16:18:58;97525.22;;;14.06;100.00
59106;BME280;44891;50.204;8.132;2023-08-06T16:23:00;97579.34;;;14.38;100.00
59106;BME280;44891;50.204;8.132;2023-08-06T16:27:04;97564.66;;;14.27;100.00
59106;BME280;44891;50.204;8.132;2023-08-06T16:31:09;97577.25;;;14.35;100.00
59106;BME280;44891;50.204;8.132;2023-08-06T16:35:12;97586.75;;;14.36;100.00
59106;BME280;44891;50.204;8.132;2023-08-06T16:39:15;97579.41;;;14.33;100.00
59106;BME280;44891;50.204;8.132;2023-08-06T16:43:22;97585.41;;;14.38;100.00
59106;BME280;44891;50.204;8.132;2023-08-06T16:47:26;97577.91;;;14.22;100.00
59106;BME280;44891;50.204;8.132;2023-08-06T16:51:28;97593.94;;;14.30;100.00
59106;BME280;44891;50.204;8.132;2023-08-06T16:55:31;97599.97;;;14.36;100.00
59106;BME280;44891;50.204;8.132;2023-08-06T16:59:33;97601.03;;;14.35;100.00
59106;BME280;44891;50.204;8.132;2023-08-06T17:03:39;97594.50;;;14.27;100.00
59106;BME280;44891;50.204;8.132;2023-08-06T17:07:42;97598.72;;;14.28;100.00
59106;BME280;44891;50.204;8.132;2023-08-06T17:11:45;97615.41;;;14.19;100.00
59106;BME280;44891;50.204;8.132;2023-08-06T17:15:50;97615.72;;;14.12;100.00
59106;BME280;44891;50.204;8.132;2023-08-06T17:19:54;97626.84;;;14.09;100.00
59106;BME280;44891;50.204;8.132;2023-08-06T17:23:57;97618.66;;;14.05;100.00
59106;BME280;44891;50.204;8.132;2023-08-06T17:28:03;97602.91;;;13.95;100.00
59106;BME280;44891;50.204;8.132;2023-08-06T17:32:05;97624.25;;;13.99;100.00
59106;BME280;44891;50.204;8.132;2023-08-06T17:36:09;97641.44;;;13.96;100.00
59106;BME280;44891;50.204;8.132;2023-08-06T17:40:13;97638.00;;;14.01;100.00
59106;BME280;44891;50.204;8.132;2023-08-06T17:44:16;97634.91;;;13.88;100.00
59106;BME280;44891;50.204;8.132;2023-08-06T17:48:18;97618.13;;;13.64;100.00
59106;BME280;44891;50.204;8.132;2023-08-06T17:52:22;97647.56;;;13.86;100.00
59106;BME280;44891;50.204;8.132;2023-08-06T17:56:24;97633.16;;;13.74;100.00
59106;BME280;44891;50.204;8.132;2023-08-06T18:00:27;97650.25;;;13.81;100.00
59106;BME280;44891;50.204;8.132;2023-08-06T18:04:30;97642.06;;;13.78;100.00
59106;BME280;44891;50.204;8.132;2023-08-06T18:08:37;97650.25;;;13.81;100.00
59106;BME280;44891;50.204;8.132;2023-08-06T18:12:40;97653.44;;;13.73;100.00
59106;BME280;44891;50.204;8.132;2023-08-06T18:16:48;97648.47;;;13.67;100.00
59106;BME280;44891;50.204;8.132;2023-08-06T18:20:51;97626.94;;;13.44;100.00
59106;BME280;44891;50.204;8.132;2023-08-06T18:24:55;97638.78;;;13.52;100.00
59106;BME280;44891;50.204;8.132;2023-08-06T18:28:58;97666.47;;;13.54;100.00
59106;BME280;44891;50.204;8.132;2023-08-06T18:33:02;97658.28;;;13.56;100.00
59106;BME280;44891;50.204;8.132;2023-08-06T18:37:05;97632.50;;;13.43;100.00
59106;BME280;44891;50.204;8.132;2023-08-06T18:41:14;97652.22;;;13.55;100.00
59106;BME280;44891;50.204;8.132;2023-08-06T18:45:17;97665.66;;;13.59;100.00
59106;BME280;44891;50.204;8.132;2023-08-06T18:49:19;97666.47;;;13.54;100.00
59106;BME280;44891;50.204;8.132;2023-08-06T18:53:21;97664.38;;;13.51;100.00
59106;BME280;44891;50.204;8.132;2023-08-06T18:57:25;97671.00;;;13.44;100.00
59106;BME280;44891;50.204;8.132;2023-08-06T19:01:30;97658.66;;;13.34;100.00
59106;BME280;44891;50.204;8.132;2023-08-06T19:05:35;97678.13;;;13.43;100.00
59106;BME280;44891;50.204;8.132;2023-08-06T19:09:38;97680.19;;;13.46;100.00
59106;BME280;44891;50.204;8.132;2023-08-06T19:13:46;97691.81;;;13.45;100.00
59106;BME280;44891;50.204;8.132;2023-08-06T19:17:50;97690.81;;;13.36;100.00
59106;BME280;44891;50.204;8.132;2023-08-06T19:21:53;97695.28;;;13.30;100.00
59106;BME280;44891;50.204;8.132;2023-08-06T19:25:56;97689.75;;;13.32;100.00
59106;BME280;44891;50.204;8.132;2023-08-06T19:30:01;97701.88;;;13.33;100.00
59106;BME280;44891;50.204;8.132;2023-08-06T19:34:03;97707.41;;;13.31;100.00
59106;BME280;44891;50.204;8.132;2023-08-06T19:38:06;97710.34;;;13.30;100.00
59106;BME280;44891;50.204;8.132;2023-08-06T19:42:08;97707.97;;;13.28;100.00
59106;BME280;44891;50.204;8.132;2023-08-06T19:46:15;97712.16;;;13.19;100.00
59106;BME280;44891;50.204;8.132;2023-08-06T19:50:19;97719.28;;;13.14;100.00
59106;BME280;44891;50.204;8.132;2023-08-06T19:54:23;97698.47;;;13.12;100.00
59106;BME280;44891;50.204;8.132;2023-08-06T19:58:27;97712.19;;;13.14;100.00
59106;BME280;44891;50.204;8.132;2023-08-06T20:02:31;97717.75;;;13.07;100.00
59106;BME280;44891;50.204;8.132;2023-08-06T20:06:34;97722.47;;;13.11;100.00
59106;BME280;44891;50.204;8.132;2023-08-06T20:10:36;97722.22;;;13.02;100.00
59106;BME280;44891;50.204;8.132;2023-08-06T20:14:38;97704.03;;;12.85;100.00
59106;BME280;44891;50.204;8.132;2023-08-06T20:18:42;97728.78;;;12.99;100.00
59106;BME280;44891;50.204;8.132;2023-08-06T20:22:45;97691.66;;;12.70;100.00
59106;BME280;44891;50.204;8.132;2023-08-06T20:26:47;97696.16;;;12.75;100.00
59106;BME280;44891;50.204;8.132;2023-08-06T20:30:53;97743.81;;;12.99;100.00
59106;BME280;44891;50.204;8.132;2023-08-06T20:34:59;97747.50;;;12.93;100.00
59106;BME280;44891;50.204;8.132;2023-08-06T20:39:01;97751.47;;;12.90;100.00
59106;BME280;44891;50.204;8.132;2023-08-06T20:43:03;97762.28;;;12.94;100.00
59106;BME280;44891;50.204;8.132;2023-08-06T20:47:06;97749.13;;;12.89;100.00
59106;BME280;44891;50.204;8.132;2023-08-06T20:51:10;97771.50;;;12.96;100.00
59106;BME280;44891;50.204;8.132;2023-08-06T20:55:13;97777.03;;;12.85;100.00
59106;BME280;44891;50.204;8.132;2023-08-06T20:59:15;97792.59;;;12.86;100.00
59106;BME280;44891;50.204;8.132;2023-08-06T21:03:17;97753.56;;;12.58;100.00
59106;BME280;44891;50.204;8.132;2023-08-06T21:07:22;97797.31;;;12.74;100.00
59106;BME280;44891;50.204;8.132;2023-08-06T21:11:24;97770.94;;;12.53;100.00
59106;BME280;44891;50.204;8.132;2023-08-06T21:15:27;97806.78;;;12.65;100.00
59106;BME280;44891;50.204;8.132;2023-08-06T21:19:29;97800.72;;;12.64;100.00